Time;durP1;ratioP1;P1;durP2;ratioP2;P2;SDS_P1;SDS_P2;PMS_P1;PMS_P2;Temp;Humidity;BMP_temperature;BMP_pressure;BME280_temperature;BME280_humidity;BME280_pressure;Samples;Min_cycle;Max_cycle;Signal;HPM_P1;HPM_P2
2023/03/12 00:00:43;;;;;;;9.73;7.55;;;;;;;1.57;80.99;100970.31;6177967;23;20009;-81
2023/03/12 00:03:08;;;;;;;11.75;8.18;;;;;;;1.61;82.12;100977.28;6153344;23;20036;-81
2023/03/12 00:05:39;;;;;;;11.18;7.10;;;;;;;1.64;82.28;100977.25;6177605;23;20008;-81
2023/03/12 00:08:04;;;;;;;12.23;7.63;;;;;;;1.66;81.58;100975.44;6178499;23;20032;-82
2023/03/12 00:10:30;;;;;;;9.30;7.57;;;;;;;1.67;80.27;100972.84;6178182;23;20005;-81
2023/03/12 00:12:55;;;;;;;12.25;7.45;;;;;;;1.66;81.54;100972.81;6178827;23;20063;-82
2023/03/12 00:15:21;;;;;;;8.55;7.03;;;;;;;1.68;81.98;100971.94;6178531;23;20115;-81
2023/03/12 00:17:46;;;;;;;8.68;7.10;;;;;;;1.64;81.92;100962.38;6176848;23;20020;-81
2023/03/12 00:20:12;;;;;;;8.13;7.03;;;;;;;1.68;81.71;100965.81;6178871;23;20437;-82
2023/03/12 00:22:38;;;;;;;8.93;6.97;;;;;;;1.65;82.84;100973.72;6177971;23;20059;-82
2023/03/12 00:25:09;;;;;;;9.40;7.40;;;;;;;1.62;82.70;100971.13;6179363;23;20035;-80
2023/03/12 00:27:35;;;;;;;11.10;7.30;;;;;;;1.59;81.47;100953.69;6176477;23;20009;-80
2023/03/12 00:30:01;;;;;;;13.38;7.70;;;;;;;1.56;81.44;100939.75;6178531;23;20005;-81
2023/03/12 00:32:26;;;;;;;8.95;7.07;;;;;;;1.57;81.15;100933.59;6178222;23;20016;-80
2023/03/12 00:34:54;;;;;;;11.63;7.05;;;;;;;1.60;81.52;100939.69;6175411;23;20016;-80
2023/03/12 00:37:20;;;;;;;8.77;7.50;;;;;;;1.58;80.04;100936.19;6176954;23;20036;-81
2023/03/12 00:39:46;;;;;;;9.35;7.35;;;;;;;1.58;80.87;100932.69;6177851;23;20001;-81
2023/03/12 00:42:11;;;;;;;8.90;7.28;;;;;;;1.59;81.31;100923.94;6179251;23;20009;-82
2023/03/12 00:44:36;;;;;;;11.10;7.57;;;;;;;1.56;79.60;100930.09;6183044;23;20424;-81
2023/03/12 00:47:02;;;;;;;9.23;7.50;;;;;;;1.52;80.48;100924.91;6191290;23;20032;-80
2023/03/12 00:49:27;;;;;;;12.20;7.80;;;;;;;1.50;80.79;100927.53;6193230;23;20081;-81
2023/03/12 00:51:53;;;;;;;9.88;7.65;;;;;;;1.48;79.53;100919.72;6188233;23;20032;-82
2023/03/12 00:54:19;;;;;;;9.82;7.25;;;;;;;1.54;80.94;100913.50;6179474;23;20028;-80
2023/03/12 00:56:45;;;;;;;11.57;7.45;;;;;;;1.57;80.26;100918.72;6176513;23;20044;-82
2023/03/12 00:59:11;;;;;;;11.77;7.78;;;;;;;1.55;81.00;100914.38;6176331;23;20009;-81
2023/03/12 01:01:37;;;;;;;10.05;7.72;;;;;;;1.60;80.37;100907.34;6176454;23;20020;-82
2023/03/12 01:04:02;;;;;;;12.18;7.75;;;;;;;1.58;79.17;100909.94;6177663;23;20005;-82
2023/03/12 01:06:27;;;;;;;11.32;7.40;;;;;;;1.57;79.48;100912.59;6177788;23;20094;-82
2023/03/12 01:08:54;;;;;;;9.50;7.40;;;;;;;1.62;80.85;100908.16;6178807;23;20005;-80
2023/03/12 01:11:20;;;;;;;11.20;7.82;;;;;;;1.58;79.24;100909.94;6178599;23;20431;-81
2023/03/12 01:13:46;;;;;;;10.27;7.13;;;;;;;1.57;80.25;100896.88;6152391;23;20423;-80
2023/03/12 01:16:11;;;;;;;11.63;7.10;;;;;;;1.64;80.96;100903.78;6176688;23;20005;-80
2023/03/12 01:18:37;;;;;;;11.70;7.30;;;;;;;1.60;79.51;100889.84;6176422;23;20016;-82
2023/03/12 01:21:02;;;;;;;9.30;7.30;;;;;;;1.57;79.73;100882.00;6177897;23;20008;-81
2023/03/12 01:23:28;;;;;;;10.90;7.18;;;;;;;1.56;80.02;100874.16;6177241;23;20071;-81
2023/03/12 01:25:57;;;;;;;9.68;7.22;;;;;;;1.59;81.29;100876.72;6176777;23;20331;-80
2023/03/12 01:28:23;;;;;;;10.18;7.20;;;;;;;1.57;80.02;100884.63;6176664;23;20004;-82
2023/03/12 01:30:49;;;;;;;11.88;7.47;;;;;;;1.58;80.56;100882.84;6175494;23;20013;-81
2023/03/12 01:33:15;;;;;;;9.40;7.32;;;;;;;1.57;80.61;100881.13;6176066;23;20012;-81
2023/03/12 01:35:41;;;;;;;10.65;7.78;;;;;;;1.56;80.40;100880.25;6173852;23;20005;-82
2023/03/12 01:38:10;;;;;;;8.55;6.97;;;;;;;1.54;80.79;100881.16;6176327;23;20044;-81
2023/03/12 01:40:35;;;;;;;10.48;7.70;;;;;;;1.56;81.52;100900.38;6179697;23;20008;-81
2023/03/12 01:43:23;;;;;;;10.32;7.28;;;;;;;1.55;81.44;100899.53;6195923;23;20020;-80
2023/03/12 01:46:04;;;;;;;9.15;7.00;;;;;;;1.49;81.30;100884.72;6195889;23;19993;-80
2023/03/12 01:48:35;;;;;;;9.30;7.47;;;;;;;1.55;80.75;100888.13;6160842;23;20005;-81
2023/03/12 01:51:01;;;;;;;9.93;7.13;;;;;;;1.47;80.10;100865.53;6177405;23;20062;-81
2023/03/12 01:53:28;;;;;;;10.63;7.22;;;;;;;1.55;81.67;100872.41;6172830;23;20005;-81
2023/03/12 01:55:54;;;;;;;10.75;7.63;;;;;;;1.46;81.76;100857.66;6151867;23;20009;-80
2023/03/12 01:58:21;;;;;;;11.52;7.78;;;;;;;1.48;81.72;100858.50;6179689;23;20009;-81
2023/03/12 02:00:46;;;;;;;9.60;7.43;;;;;;;1.48;81.37;100859.38;6177215;23;20009;-82
2023/03/12 02:03:12;;;;;;;9.75;7.55;;;;;;;1.48;81.26;100863.75;6178749;23;20008;-81
2023/03/12 02:05:47;;;;;;;10.60;7.85;;;;;;;1.48;82.87;100854.13;6176990;23;20331;-80
2023/03/12 02:08:15;;;;;;;9.65;7.50;;;;;;;1.38;82.08;100835.91;6177361;23;20001;-81
2023/03/12 02:10:40;;;;;;;10.05;7.15;;;;;;;1.47;82.36;100851.53;6176467;23;20056;-81
2023/03/12 02:13:06;;;;;;;10.55;7.35;;;;;;;1.35;82.50;100828.97;6177009;23;20005;-81
2023/03/12 02:15:34;;;;;;;9.15;7.90;;;;;;;1.47;84.11;100844.53;6175364;23;20045;-81
2023/03/12 02:18:02;;;;;;;9.27;7.38;;;;;;;1.47;83.12;100843.66;6173931;23;20013;-81
2023/03/12 02:20:57;;;;;;;10.43;8.00;;;;;;;1.45;83.19;100833.19;6176419;23;20008;-81
2023/03/12 02:24:02;;;;;;;10.45;8.02;;;;;;;1.51;82.80;100832.25;6150021;23;20457;-80
2023/03/12 02:26:29;;;;;;;10.73;7.60;;;;;;;1.43;81.67;100821.84;6176412;23;20000;-80
2023/03/12 02:28:55;;;;;;;10.43;8.02;;;;;;;1.47;81.96;100823.56;6177097;23;20103;-81
2023/03/12 02:31:25;;;;;;;10.50;7.70;;;;;;;1.47;83.15;100826.19;6176002;23;20063;-81
2023/03/12 02:33:52;;;;;;;10.65;7.45;;;;;;;1.45;83.69;100803.47;6176212;23;20016;-83
2023/03/12 02:36:18;;;;;;;11.88;8.18;;;;;;;1.47;83.72;100812.19;6175728;23;20378;-81
2023/03/12 02:38:52;;;;;;;10.57;8.40;;;;;;;1.52;84.08;100825.25;6175719;23;20059;-82
2023/03/12 02:41:22;;;;;;;10.48;7.85;;;;;;;1.47;83.58;100813.06;6149947;23;20012;-81
2023/03/12 02:44:10;;;;;;;9.40;7.70;;;;;;;1.52;83.59;100822.63;6176205;23;20001;-81
2023/03/12 02:46:56;;;;;;;10.10;8.20;;;;;;;1.52;84.15;100814.75;6163847;23;20379;-81
2023/03/12 02:49:24;;;;;;;11.23;7.90;;;;;;;1.47;84.95;100817.44;6150506;23;20390;-81
2023/03/12 02:51:50;;;;;;;10.82;7.97;;;;;;;1.48;85.71;100820.03;6175375;23;20009;-81
2023/03/12 02:54:17;;;;;;;12.35;8.60;;;;;;;1.48;85.13;100822.66;6176755;23;20011;-82
2023/03/12 02:56:43;;;;;;;11.82;8.90;;;;;;;1.51;86.17;100821.75;6176009;23;20029;-81
2023/03/12 02:59:09;;;;;;;11.77;8.75;;;;;;;1.48;85.63;100827.91;6162975;23;20023;-79
2023/03/12 03:01:35;;;;;;;12.85;8.55;;;;;;;1.53;85.59;100824.34;6190377;23;20009;-80
2023/03/12 03:04:01;;;;;;;11.80;8.70;;;;;;;1.52;85.62;100822.63;6188015;23;20154;-80
2023/03/12 03:06:27;;;;;;;10.50;8.18;;;;;;;1.54;85.51;100823.44;6178598;23;20005;-80
2023/03/12 03:08:53;;;;;;;10.95;9.00;;;;;;;1.55;85.98;100826.06;6176148;23;20068;-82
2023/03/12 03:11:23;;;;;;;11.30;9.20;;;;;;;1.52;87.36;100820.84;6177119;23;20012;-79
2023/03/12 03:13:48;;;;;;;11.85;9.82;;;;;;;1.45;87.87;100816.56;6175787;23;20005;-81
2023/03/12 03:16:14;;;;;;;11.30;9.20;;;;;;;1.27;89.57;100801.97;6176869;23;20001;-81
2023/03/12 03:18:39;;;;;;;11.73;9.13;;;;;;;1.26;91.25;100815.13;6177280;23;20005;-80
2023/03/12 03:21:06;;;;;;;13.45;9.02;;;;;;;1.22;93.89;100824.78;6177623;23;20056;-81
2023/03/12 03:23:33;;;;;;;15.32;8.93;;;;;;;1.13;95.71;100811.75;6177079;23;20013;-82
2023/03/12 03:26:02;;;;;;;14.07;10.02;;;;;;;1.16;96.03;100822.22;6176189;23;20001;-81
2023/03/12 03:28:29;;;;;;;10.15;9.10;;;;;;;1.15;97.04;100825.72;6176242;23;20004;-81
2023/03/12 03:31:00;;;;;;;12.10;9.25;;;;;;;1.11;96.35;100814.41;6176403;23;20009;-82
2023/03/12 03:33:27;;;;;;;12.55;9.10;;;;;;;1.06;96.98;100810.97;6176321;23;20005;-81
2023/03/12 03:35:54;;;;;;;11.45;8.52;;;;;;;1.10;98.33;100815.28;6174707;23;20013;-81
2023/03/12 03:38:20;;;;;;;13.35;9.15;;;;;;;1.10;99.90;100802.19;6174790;23;20005;-80
2023/03/12 03:40:45;;;;;;;10.90;8.73;;;;;;;1.00;99.47;100787.44;6175034;23;20005;-80
2023/03/12 03:43:11;;;;;;;12.30;8.10;;;;;;;1.06;98.80;100792.63;6175832;23;20243;-81
2023/03/12 03:45:36;;;;;;;11.85;8.52;;;;;;;1.04;100.00;100786.53;6174412;23;20466;-81
2023/03/12 03:48:01;;;;;;;11.07;8.40;;;;;;;1.09;100.00;100794.38;6175567;23;20062;-81
2023/03/12 03:50:27;;;;;;;12.45;8.75;;;;;;;1.11;100.00;100796.06;6181033;23;20005;-80
2023/03/12 03:52:52;;;;;;;13.90;8.45;;;;;;;1.12;100.00;100778.56;6189353;23;20020;-80
2023/03/12 03:55:17;;;;;;;17.65;8.48;;;;;;;1.14;100.00;100782.91;6190237;23;20005;-80
2023/03/12 03:57:43;;;;;;;10.48;8.63;;;;;;;1.11;100.00;100761.97;6185748;23;20027;-81
2023/03/12 04:00:12;;;;;;;9.73;8.15;;;;;;;1.17;100.00;100766.25;6179350;23;20495;-81
2023/03/12 04:02:37;;;;;;;9.77;7.78;;;;;;;1.13;100.00;100754.06;6176652;23;20108;-80
2023/03/12 04:05:03;;;;;;;10.25;7.93;;;;;;;1.10;99.76;100752.38;6176313;23;20486;-80
2023/03/12 04:07:29;;;;;;;12.40;8.25;;;;;;;1.05;99.90;100748.09;6175084;23;20009;-80
2023/03/12 04:09:56;;;;;;;12.25;7.90;;;;;;;1.05;100.00;100745.47;6178470;23;20005;-81
2023/03/12 04:12:24;;;;;;;11.43;7.90;;;;;;;1.04;100.00;100754.22;6177353;23;20225;-81
2023/03/12 04:14:50;;;;;;;10.13;7.68;;;;;;;1.05;100.00;100750.72;6176458;23;20012;-82
2023/03/12 04:17:16;;;;;;;11.85;7.65;;;;;;;1.11;100.00;100758.50;6177778;23;20012;-81
2023/03/12 04:19:41;;;;;;;10.65;7.55;;;;;;;1.16;99.46;100748.81;6177239;23;20760;-80
2023/03/12 04:22:06;;;;;;;10.15;7.50;;;;;;;1.19;98.41;100738.28;6176991;23;20005;-80
2023/03/12 04:24:31;;;;;;;11.73;7.90;;;;;;;1.16;97.71;100720.84;6177093;23;20609;-81
2023/03/12 04:26:58;;;;;;;11.85;7.95;;;;;;;1.25;98.03;100722.44;6177294;23;20039;-81
2023/03/12 04:29:23;;;;;;;9.52;7.47;;;;;;;1.28;98.65;100727.66;6177678;23;20447;-81
2023/03/12 04:31:48;;;;;;;9.25;7.07;;;;;;;1.27;98.46;100712.81;6177325;23;20013;-80
2023/03/12 04:34:14;;;;;;;10.40;7.57;;;;;;;1.29;98.17;100724.13;6178531;23;20004;-83
2023/03/12 04:36:39;;;;;;;11.70;7.65;;;;;;;1.28;99.68;100722.41;6175521;23;20009;-82
2023/03/12 04:39:08;;;;;;;11.73;7.10;;;;;;;1.32;98.54;100707.50;6177018;23;20128;-81
2023/03/12 04:41:34;;;;;;;10.50;7.07;;;;;;;1.31;98.16;100711.88;6176381;23;20007;-82
2023/03/12 04:43:59;;;;;;;10.82;6.65;;;;;;;1.33;98.26;100694.34;6177829;23;20005;-81
2023/03/12 04:46:25;;;;;;;9.52;7.35;;;;;;;1.34;98.30;100690.88;6177674;23;20065;-81
2023/03/12 04:48:50;;;;;;;11.38;6.95;;;;;;;1.35;98.93;100689.97;6177237;23;20059;-82
2023/03/12 04:51:16;;;;;;;11.50;7.05;;;;;;;1.36;99.33;100686.44;6177851;23;20009;-83
2023/03/12 04:53:42;;;;;;;12.80;7.57;;;;;;;1.37;99.30;100689.94;6176204;23;20028;-80
2023/03/12 04:56:07;;;;;;;11.10;6.50;;;;;;;1.37;98.68;100693.44;6176290;23;20005;-82
2023/03/12 04:58:34;;;;;;;11.45;6.97;;;;;;;1.38;99.71;100692.56;6176868;23;20608;-82
2023/03/12 05:01:00;;;;;;;9.93;6.78;;;;;;;1.40;100.00;100696.00;6178595;23;20423;-82
2023/03/12 05:03:26;;;;;;;11.70;7.03;;;;;;;1.40;100.00;100698.63;6178199;23;20020;-82
2023/03/12 05:05:51;;;;;;;11.45;6.53;;;;;;;1.43;100.00;100688.09;6176932;23;20163;-81
2023/03/12 05:08:16;;;;;;;7.07;6.38;;;;;;;1.44;100.00;100679.34;6177846;23;20010;-82
2023/03/12 05:10:44;;;;;;;7.53;6.47;;;;;;;1.44;100.00;100671.47;6184909;23;20664;-81
2023/03/12 05:13:18;;;;;;;7.70;6.22;;;;;;;1.41;100.00;100661.00;6193331;23;20004;-80
2023/03/12 05:15:45;;;;;;;8.25;6.65;;;;;;;1.45;100.00;100665.31;6193075;23;20019;-81
2023/03/12 05:18:10;;;;;;;8.55;6.35;;;;;;;1.45;100.00;100653.97;6190825;23;20013;-79
2023/03/12 05:20:35;;;;;;;11.95;6.38;;;;;;;1.44;100.00;100645.25;6185262;23;20012;-81
2023/03/12 05:23:01;;;;;;;9.55;6.50;;;;;;;1.44;100.00;100640.00;6180385;23;20020;-82
2023/03/12 05:25:26;;;;;;;15.07;7.10;;;;;;;1.48;100.00;100648.69;6175456;23;20011;-82
2023/03/12 05:27:52;;;;;;;11.32;6.55;;;;;;;1.47;100.00;100647.81;6177346;23;20009;-81
2023/03/12 05:30:17;;;;;;;12.30;6.60;;;;;;;1.49;100.00;100655.66;6176365;23;20015;-81
2023/03/12 05:32:43;;;;;;;8.32;6.57;;;;;;;1.48;100.00;100644.28;6176451;23;20005;-80
2023/03/12 05:35:08;;;;;;;12.73;6.47;;;;;;;1.48;100.00;100649.53;6177635;23;20009;-83
2023/03/12 05:37:34;;;;;;;8.45;6.80;;;;;;;1.51;100.00;100651.25;6176998;23;20432;-81
2023/03/12 05:39:59;;;;;;;9.98;7.15;;;;;;;1.52;100.00;100647.75;6176354;23;20001;-81
2023/03/12 05:42:25;;;;;;;9.52;6.80;;;;;;;1.53;100.00;100648.59;6177392;23;20005;-80
2023/03/12 05:44:50;;;;;;;9.20;7.32;;;;;;;1.52;100.00;100646.88;6176200;23;20372;-81
2023/03/12 05:47:16;;;;;;;12.07;7.57;;;;;;;1.51;100.00;100632.91;6177887;23;20080;-81
2023/03/12 05:49:43;;;;;;;12.40;7.05;;;;;;;1.53;100.00;100633.72;6176838;23;20104;-81
2023/03/12 05:52:08;;;;;;;14.13;7.30;;;;;;;1.52;100.00;100625.88;6177809;23;20005;-81
2023/03/12 05:54:34;;;;;;;11.80;7.72;;;;;;;1.53;100.00;100628.47;6148892;23;20442;-82
2023/03/12 05:56:59;;;;;;;10.73;7.30;;;;;;;1.60;100.00;100637.97;6178643;23;20068;-80
2023/03/12 05:59:24;;;;;;;11.95;7.80;;;;;;;1.61;100.00;100638.84;6178458;23;20009;-82
2023/03/12 06:01:50;;;;;;;14.10;7.97;;;;;;;1.62;100.00;100638.81;6189914;23;20009;-81
2023/03/12 06:04:15;;;;;;;12.40;8.18;;;;;;;1.63;100.00;100634.41;6193665;23;20016;-80
2023/03/12 06:06:40;;;;;;;10.70;7.32;;;;;;;1.64;100.00;100636.19;6193909;23;20004;-81
2023/03/12 06:09:06;;;;;;;11.55;7.82;;;;;;;1.65;100.00;100630.88;6177584;23;20001;-81
2023/03/12 06:11:33;;;;;;;13.25;7.60;;;;;;;1.66;100.00;100645.72;6176150;23;20092;-81
2023/03/12 06:13:58;;;;;;;13.30;7.93;;;;;;;1.65;100.00;100638.75;6176580;23;20004;-81
2023/03/12 06:16:26;;;;;;;11.18;7.85;;;;;;;1.67;100.00;100642.25;6177579;23;20005;-81
2023/03/12 06:18:55;;;;;;;12.70;8.30;;;;;;;1.72;100.00;100642.16;6178055;23;20004;-81
2023/03/12 06:21:23;;;;;;;14.05;8.75;;;;;;;1.72;100.00;100643.00;6177879;23;20024;-81
2023/03/12 06:23:49;;;;;;;11.07;8.13;;;;;;;1.74;100.00;100648.22;6176791;23;20080;-81
2023/03/12 06:26:15;;;;;;;15.15;8.50;;;;;;;1.75;100.00;100647.31;6177853;23;20530;-81
2023/03/12 06:28:41;;;;;;;10.88;8.10;;;;;;;1.73;100.00;100646.50;6177487;23;20017;-81
2023/03/12 06:31:07;;;;;;;13.07;9.10;;;;;;;1.75;100.00;100660.44;6176584;23;20026;-80
2023/03/12 06:33:33;;;;;;;11.82;8.95;;;;;;;1.72;100.00;100661.38;6174896;23;20059;-81
2023/03/12 06:36:01;;;;;;;17.40;9.50;;;;;;;1.71;100.00;100659.66;6174624;23;20028;-81
2023/03/12 06:38:27;;;;;;;11.45;8.75;;;;;;;1.70;100.00;100651.78;6175993;23;20063;-80
2023/03/12 06:40:54;;;;;;;11.82;9.00;;;;;;;1.70;100.00;100647.41;6176269;23;20005;-81
2023/03/12 06:43:20;;;;;;;12.90;9.43;;;;;;;1.70;100.00;100636.06;6176836;23;20005;-80
2023/03/12 06:45:45;;;;;;;12.18;9.18;;;;;;;1.68;100.00;100632.59;6176585;23;20109;-80
2023/03/12 06:48:10;;;;;;;10.82;8.85;;;;;;;1.70;100.00;100630.81;6176756;23;20020;-81
2023/03/12 06:50:36;;;;;;;15.98;9.00;;;;;;;1.71;100.00;100630.81;6175567;23;20028;-80
2023/03/12 06:53:01;;;;;;;14.55;9.40;;;;;;;1.74;100.00;100616.75;6176708;23;20478;-80
2023/03/12 06:55:27;;;;;;;13.88;9.70;;;;;;;1.84;100.00;100622.66;6174919;23;20009;-80
2023/03/12 06:57:52;;;;;;;13.10;9.45;;;;;;;1.85;100.00;100604.28;6175968;23;20095;-79
2023/03/12 07:00:18;;;;;;;13.85;9.35;;;;;;;1.91;100.00;100608.56;6176239;23;20277;-81
2023/03/12 07:02:43;;;;;;;16.02;9.93;;;;;;;1.93;100.00;100607.63;6176659;23;20005;-79
2023/03/12 07:05:10;;;;;;;15.60;9.45;;;;;;;1.95;100.00;100605.84;6175628;23;20327;-80
2023/03/12 07:07:35;;;;;;;13.10;10.27;;;;;;;1.96;100.00;100602.31;6149895;23;20419;-81
2023/03/12 07:10:00;;;;;;;13.40;9.63;;;;;;;1.99;100.00;100607.50;6178328;23;20005;-81
2023/03/12 07:12:26;;;;;;;15.52;10.15;;;;;;;2.03;100.00;100610.09;6179096;23;20005;-81
2023/03/12 07:14:51;;;;;;;14.75;9.95;;;;;;;2.06;100.00;100604.78;6175541;23;20009;-81
2023/03/12 07:17:16;;;;;;;13.27;10.20;;;;;;;2.11;100.00;100605.53;6177498;23;20005;-81
2023/03/12 07:19:41;;;;;;;16.15;9.18;;;;;;;2.09;100.00;100594.19;6186226;23;20012;-79
2023/03/12 07:22:07;;;;;;;14.55;10.30;;;;;;;2.12;100.00;100591.50;6189436;23;20346;-81
2023/03/12 07:24:32;;;;;;;13.32;9.75;;;;;;;2.18;100.00;100599.28;6187933;23;20059;-80
2023/03/12 07:26:57;;;;;;;11.38;9.85;;;;;;;2.22;100.00;100604.44;6178528;23;20100;-81
2023/03/12 07:29:23;;;;;;;12.93;10.25;;;;;;;2.21;100.00;100597.44;6177093;23;20368;-81
2023/03/12 07:31:49;;;;;;;15.27;11.30;;;;;;;2.23;100.00;100602.69;6175130;23;20343;-81
2023/03/12 07:34:14;;;;;;;15.50;10.63;;;;;;;2.26;100.00;100605.25;6176618;23;20012;-81
2023/03/12 07:36:39;;;;;;;16.48;10.80;;;;;;;2.24;100.00;100609.66;6177834;23;20460;-80
2023/03/12 07:39:05;;;;;;;14.30;11.10;;;;;;;2.28;100.00;100611.31;6179081;23;20001;-82
2023/03/12 07:41:30;;;;;;;13.75;11.07;;;;;;;2.32;100.00;100617.38;6182253;23;20450;-81
2023/03/12 07:43:55;;;;;;;15.88;11.57;;;;;;;2.35;100.00;100618.19;6182970;23;20423;-79
2023/03/12 07:46:21;;;;;;;16.33;11.43;;;;;;;2.34;100.00;100613.84;6183734;23;20040;-80
2023/03/12 07:48:47;;;;;;;13.30;11.45;;;;;;;2.30;100.00;100606.00;6156077;23;20209;-80
2023/03/12 07:51:12;;;;;;;14.55;12.23;;;;;;;2.32;100.00;100614.75;6182438;23;20004;-80
2023/03/12 07:53:37;;;;;;;16.02;11.68;;;;;;;2.28;100.00;100607.81;6179976;23;20092;-81
2023/03/12 07:56:03;;;;;;;16.02;13.60;;;;;;;2.31;100.00;100615.66;6179774;23;20415;-81
2023/03/12 07:58:28;;;;;;;15.73;13.00;;;;;;;2.33;100.00;100612.06;6180242;23;20016;-81
2023/03/12 08:00:55;;;;;;;18.50;14.18;;;;;;;2.35;100.00;100609.44;6178467;23;20506;-80
2023/03/12 08:03:20;;;;;;;21.65;14.05;;;;;;;2.35;100.00;100607.69;6185558;23;20044;-80
2023/03/12 08:05:55;;;;;;;18.35;15.68;;;;;;;2.35;100.00;100597.16;6186929;23;20001;-81
2023/03/12 08:08:20;;;;;;;19.42;16.40;;;;;;;2.42;100.00;100601.38;6180307;23;20450;-81
2023/03/12 08:10:46;;;;;;;20.05;15.38;;;;;;;2.43;100.00;100592.63;6178444;23;20005;-79
2023/03/12 08:13:11;;;;;;;20.40;15.45;;;;;;;2.46;100.00;100589.91;6176882;23;20016;-80
2023/03/12 08:15:37;;;;;;;19.83;15.40;;;;;;;2.55;100.00;100604.63;6176336;23;20040;-81
2023/03/12 08:18:02;;;;;;;20.98;15.70;;;;;;;2.61;100.00;100601.84;6176427;23;20024;-82
2023/03/12 08:20:28;;;;;;;18.27;15.93;;;;;;;2.66;100.00;100604.38;6177778;23;20544;-80
2023/03/12 08:22:53;;;;;;;23.67;16.77;;;;;;;2.70;100.00;100598.16;6177808;23;20065;-81
2023/03/12 08:25:19;;;;;;;18.42;16.33;;;;;;;2.74;100.00;100599.81;6178227;23;20347;-82
2023/03/12 08:27:45;;;;;;;19.77;16.85;;;;;;;2.82;100.00;100611.03;6151449;23;20016;-82
2023/03/12 08:30:11;;;;;;;20.85;18.58;;;;;;;2.84;100.00;100600.47;6177698;23;20005;-81
2023/03/12 08:32:36;;;;;;;21.00;18.23;;;;;;;2.89;100.00;100598.63;6177397;23;20009;-81
2023/03/12 08:35:04;;;;;;;20.55;17.90;;;;;;;2.98;100.00;100612.41;6177252;23;20013;-80
2023/03/12 08:37:29;;;;;;;22.08;19.70;;;;;;;3.03;100.00;100604.41;6176629;23;20028;-80
2023/03/12 08:39:54;;;;;;;24.15;21.08;;;;;;;3.13;100.00;100620.81;6177106;23;20409;-82
2023/03/12 08:42:20;;;;;;;24.23;20.58;;;;;;;3.18;100.00;100611.94;6173764;23;20009;-83
2023/03/12 08:44:45;;;;;;;23.02;20.38;;;;;;;3.27;100.00;100615.25;6175223;23;20033;-81
2023/03/12 08:47:11;;;;;;;23.83;21.02;;;;;;;3.29;100.00;100602.91;6176622;23;20084;-81
2023/03/12 08:49:36;;;;;;;24.90;21.38;;;;;;;3.38;100.00;100613.19;6177147;23;20036;-82
2023/03/12 08:52:01;;;;;;;26.30;20.90;;;;;;;3.45;100.00;100618.25;6176881;23;20008;-81
2023/03/12 08:54:27;;;;;;;25.42;22.48;;;;;;;3.55;100.00;100628.56;6176148;23;20052;-81
2023/03/12 08:56:52;;;;;;;24.50;21.75;;;;;;;3.60;100.00;100634.59;6174097;23;20017;-80
2023/03/12 08:59:19;;;;;;;23.02;20.58;;;;;;;3.66;100.00;100637.03;6177742;23;20009;-81
2023/03/12 09:01:45;;;;;;;26.52;21.75;;;;;;;3.68;100.00;100630.84;6174956;23;20012;-82
2023/03/12 09:04:10;;;;;;;28.85;23.95;;;;;;;3.81;100.00;100636.66;6177168;23;20526;-82
2023/03/12 09:06:37;;;;;;;25.70;21.73;;;;;;;3.85;100.00;100632.19;6176988;23;20063;-82
2023/03/12 09:09:03;;;;;;;26.40;22.63;;;;;;;3.93;100.00;100631.06;6177676;23;20023;-80
2023/03/12 09:11:31;;;;;;;28.83;22.15;;;;;;;4.01;100.00;100628.19;6176246;23;20012;-81
2023/03/12 09:13:57;;;;;;;26.38;22.13;;;;;;;4.04;100.00;100637.81;6177865;23;20013;-82
2023/03/12 09:16:22;;;;;;;28.35;23.17;;;;;;;4.21;100.00;100633.78;6176668;23;20487;-82
2023/03/12 09:18:48;;;;;;;30.50;23.60;;;;;;;4.25;100.00;100627.53;6175456;23;20214;-82
2023/03/12 09:21:13;;;;;;;31.50;23.08;;;;;;;4.32;100.00;100628.22;6177662;23;20064;-81
2023/03/12 09:23:39;;;;;;;29.30;23.70;;;;;;;4.49;100.00;100633.00;6178605;23;20332;-80
2023/03/12 09:26:09;;;;;;;34.65;24.30;;;;;;;4.57;100.00;100643.34;6186737;23;20084;-81
2023/03/12 09:28:34;;;;;;;30.50;23.77;;;;;;;4.70;100.00;100624.47;6185026;23;20001;-82
2023/03/12 09:31:01;;;;;;;32.05;24.00;;;;;;;4.83;100.00;100632.88;6185591;23;20181;-82
2023/03/12 09:33:26;;;;;;;30.08;23.85;;;;;;;4.89;100.00;100629.16;6185842;23;20009;-81
2023/03/12 09:35:58;;;;;;;29.35;23.00;;;;;;;5.02;100.00;100634.91;6185118;23;20335;-82
2023/03/12 09:38:24;;;;;;;28.25;23.67;;;;;;;5.18;100.00;100641.44;6178157;23;20427;-82
2023/03/12 09:40:50;;;;;;;27.50;22.90;;;;;;;5.17;100.00;100618.63;6175809;23;20060;-82
2023/03/12 09:43:18;;;;;;;29.38;24.30;;;;;;;5.34;100.00;100632.13;6177136;23;20032;-80
2023/03/12 09:45:46;;;;;;;27.15;22.10;;;;;;;5.44;100.00;100635.34;6176165;23;20027;-80
2023/03/12 09:48:33;;;;;;;29.27;23.52;;;;;;;5.67;100.00;100640.69;6177052;23;20227;-83
2023/03/12 09:51:15;;;;;;;29.40;22.65;;;;;;;5.87;100.00;100644.44;6177427;23;20165;-81
2023/03/12 09:53:47;;;;;;;26.92;22.20;;;;;;;6.01;100.00;100647.50;6179483;23;20012;-82
2023/03/12 09:56:17;;;;;;;24.88;21.83;;;;;;;6.05;100.00;100648.25;6177120;23;20005;-83
2023/03/12 09:58:46;;;;;;;23.13;20.63;;;;;;;6.10;100.00;100664.78;6177381;23;20455;-82
2023/03/12 10:01:26;;;;;;;25.20;21.30;;;;;;;6.09;100.00;100657.78;6178360;23;20059;-82
2023/03/12 10:04:02;;;;;;;23.85;21.25;;;;;;;6.10;100.00;100662.16;6179633;23;20419;-81
2023/03/12 10:06:35;;;;;;;26.88;20.85;;;;;;;6.03;100.00;100658.88;6179611;23;20004;-84
2023/03/12 10:09:22;;;;;;;25.48;21.63;;;;;;;6.16;100.00;100676.03;6175050;23;20072;-81
2023/03/12 10:11:56;;;;;;;27.83;22.63;;;;;;;6.23;100.00;100672.25;6174457;23;20059;-81
2023/03/12 10:15:09;;;;;;;26.23;23.23;;;;;;;6.34;100.00;100671.84;6175252;23;20445;-83
2023/03/12 10:17:46;;;;;;;31.60;25.23;;;;;;;6.49;100.00;100667.81;6152245;23;20036;-83
2023/03/12 10:20:25;;;;;;;29.58;23.55;;;;;;;6.54;100.00;100665.00;6174701;23;20101;-82
2023/03/12 10:23:17;;;;;;;29.75;24.73;;;;;;;6.65;100.00;100668.09;6173215;23;20099;-82
2023/03/12 10:25:45;;;;;;;29.73;24.33;;;;;;;6.70;100.00;100663.50;6174723;23;20027;-82
2023/03/12 10:28:18;;;;;;;31.60;24.73;;;;;;;6.73;100.00;100672.19;6173751;23;20032;-82
2023/03/12 10:30:58;;;;;;;34.08;25.58;;;;;;;6.75;100.00;100656.25;6174379;23;20071;-81
2023/03/12 10:33:36;;;;;;;33.05;25.90;;;;;;;6.79;100.00;100659.66;6174387;23;20001;-83
2023/03/12 10:36:10;;;;;;;39.28;27.17;;;;;;;6.78;100.00;100657.94;6172531;23;20026;-83
2023/03/12 10:38:35;;;;;;;39.20;26.77;;;;;;;6.77;100.00;100664.97;6173870;23;20009;-82
2023/03/12 10:41:12;;;;;;;43.60;28.75;;;;;;;6.68;100.00;100638.88;6173739;23;20017;-81
2023/03/12 10:43:37;;;;;;;38.13;27.33;;;;;;;6.87;100.00;100673.44;6174429;23;20830;-82
2023/03/12 10:46:41;;;;;;;46.95;30.60;;;;;;;6.99;100.00;100649.16;6173296;23;20008;-82
2023/03/12 10:49:24;;;;;;;44.28;29.67;;;;;;;7.10;100.00;100654.00;6173806;23;20001;-83
2023/03/12 10:51:55;;;;;;;44.15;30.63;;;;;;;7.17;100.00;100651.06;6173128;23;20005;-82
2023/03/12 10:54:32;;;;;;;41.65;28.83;;;;;;;7.22;100.00;100643.78;6174373;23;20012;-82
2023/03/12 10:56:58;;;;;;;45.42;29.23;;;;;;;7.35;100.00;100638.88;6174094;23;20013;-82
2023/03/12 10:59:29;;;;;;;44.13;29.02;;;;;;;7.42;100.00;100652.72;6175133;23;20063;-82
2023/03/12 11:01:55;;;;;;;43.25;28.15;;;;;;;7.46;100.00;100655.19;6173582;23;20020;-84
2023/03/12 11:04:23;;;;;;;45.15;29.40;;;;;;;7.55;100.00;100666.31;6171384;23;20005;-83
2023/03/12 11:07:11;;;;;;;45.53;29.85;;;;;;;7.60;100.00;100648.44;6175091;23;20568;-82
2023/03/12 11:09:36;;;;;;;46.40;29.98;;;;;;;7.74;100.00;100646.09;6176702;23;20334;-83
2023/03/12 11:12:02;;;;;;;45.78;29.48;;;;;;;7.94;100.00;100656.72;6151565;23;20112;-82
2023/03/12 11:14:29;;;;;;;49.03;28.35;;;;;;;8.01;100.00;100670.56;6176468;23;20078;-82
2023/03/12 11:16:55;;;;;;;43.50;28.73;;;;;;;8.01;100.00;100665.25;6177072;23;20012;-83
2023/03/12 11:19:32;;;;;;;43.67;28.85;;;;;;;8.13;100.00;100653.25;6176487;23;20063;-82
2023/03/12 11:22:04;;;;;;;45.05;29.55;;;;;;;8.44;100.00;100664.28;6150913;23;20015;-82